Terminal Aerodrome Forecast
Issued by NWS Tuscon, AZ

Current Version | Previous Version | Text Only | Print | Product List | Glossary On
Versions: 1 2 3 4 5 6 7 8 9 10 11 12 13
755
FTUS45 KTWC 221727
TAFTUS
TAF
KTUS 221727Z 2218/2318 20013G20KT P6SM FEW250
     FM222000 24018G26KT P6SM FEW100 SCT250
     FM230200 27011KT P6SM FEW100 SCT250
     FM230700 14007KT P6SM SCT250=

USA.gov is the U.S. government's official web portal to all federal, state and local government web resources and services.